Time;durP1;ratioP1;P1;durP2;ratioP2;P2;SDS_P1;SDS_P2;PMS_P1;PMS_P2;Temp;Humidity;BMP_temperature;BMP_pressure;BME280_temperature;BME280_humidity;BME280_pressure;Samples;Min_cycle;Max_cycle;Signal;HPM_P1;HPM_P2
2023/04/11 00:01:48;;;;;;;;;;;8.40;99.90;;;;;;8380055;28;20380;-75
2023/04/11 00:05:50;;;;;;;;;;;8.50;99.90;;;;;;8392663;28;19924;-75
2023/04/11 00:09:52;;;;;;;;;;;8.70;99.90;;;;;;8396558;28;20392;-75
2023/04/11 00:13:57;;;;;;;;;;;8.80;99.90;;;;;;8398626;28;19929;-75
2023/04/11 00:17:59;;;;;;;;;;;8.90;99.90;;;;;;8426288;27;19977;-75
2023/04/11 00:22:01;;;;;;;;;;;8.90;99.90;;;;;;8399539;28;20295;-75
2023/04/11 00:26:03;;;;;;;;;;;8.90;99.90;;;;;;8389391;28;19959;-75
2023/04/11 00:30:05;;;;;;;;;;;9.00;99.90;;;;;;8389387;28;19943;-75
2023/04/11 00:34:07;;;;;;;;;;;9.00;99.90;;;;;;8371893;28;19932;-75
2023/04/11 00:38:08;;;;;;;;;;;9.00;99.90;;;;;;8384541;28;19924;-75
2023/04/11 00:42:10;;;;;;;;;;;9.00;99.90;;;;;;8396434;28;19931;-75
2023/04/11 00:46:12;;;;;;;;;;;9.00;99.90;;;;;;8379670;28;19972;-76
2023/04/11 00:50:14;;;;;;;;;;;9.00;99.90;;;;;;8368621;28;19932;-75
2023/04/11 00:54:17;;;;;;;;;;;9.00;99.90;;;;;;8377262;28;19955;-75
2023/04/11 00:58:19;;;;;;;;;;;9.00;99.90;;;;;;8380582;28;19931;-75
2023/04/11 01:02:20;;;;;;;;;;;9.00;99.90;;;;;;8421062;27;19931;-75
2023/04/11 01:06:22;;;;;;;;;;;9.00;99.90;;;;;;8387578;28;19929;-75
2023/04/11 01:10:24;;;;;;;;;;;9.00;99.90;;;;;;8393139;28;19960;-75
2023/04/11 01:14:26;;;;;;;;;;;8.90;99.90;;;;;;8394291;28;19925;-75
2023/04/11 01:18:27;;;;;;;;;;;8.90;99.90;;;;;;8384026;28;19979;-75
2023/04/11 01:22:29;;;;;;;;;;;8.90;99.90;;;;;;8381483;28;19928;-75
2023/04/11 01:26:31;;;;;;;;;;;8.90;99.90;;;;;;8401790;28;19963;-75
2023/04/11 01:30:32;;;;;;;;;;;8.90;99.90;;;;;;8395125;28;19931;-75
2023/04/11 01:34:34;;;;;;;;;;;8.90;99.90;;;;;;8395280;28;19932;-75
2023/04/11 01:38:36;;;;;;;;;;;8.90;99.90;;;;;;8385868;28;19931;-75
2023/04/11 01:42:38;;;;;;;;;;;8.90;99.90;;;;;;8394821;28;19930;-75
2023/04/11 01:46:40;;;;;;;;;;;9.00;99.90;;;;;;8386790;28;19925;-75
2023/04/11 01:50:42;;;;;;;;;;;9.00;99.90;;;;;;8395471;28;19925;-75
2023/04/11 01:54:44;;;;;;;;;;;9.00;99.90;;;;;;8383521;28;19956;-76
2023/04/11 01:58:45;;;;;;;;;;;9.00;99.90;;;;;;8370825;28;19925;-75
2023/04/11 02:02:47;;;;;;;;;;;9.00;99.90;;;;;;8393134;28;19968;-76
2023/04/11 02:06:49;;;;;;;;;;;9.00;99.90;;;;;;8380490;28;19924;-75
2023/04/11 02:10:50;;;;;;;;;;;9.00;99.90;;;;;;8375908;28;19925;-75
2023/04/11 02:14:52;;;;;;;;;;;9.00;99.90;;;;;;8387350;28;19925;-75
2023/04/11 02:18:54;;;;;;;;;;;9.10;99.90;;;;;;8386457;28;19929;-75
2023/04/11 02:22:57;;;;;;;;;;;9.20;99.90;;;;;;8386224;28;19977;-75
2023/04/11 02:27:00;;;;;;;;;;;9.20;99.90;;;;;;8392835;28;19935;-75
2023/04/11 02:31:02;;;;;;;;;;;9.20;99.90;;;;;;8421563;28;19925;-75
2023/04/11 02:35:04;;;;;;;;;;;9.20;99.90;;;;;;8374755;28;19969;-75
2023/04/11 02:39:06;;;;;;;;;;;9.20;99.90;;;;;;8406180;28;19924;-75
2023/04/11 02:43:08;;;;;;;;;;;9.20;99.90;;;;;;8390120;28;19925;-75
2023/04/11 02:47:09;;;;;;;;;;;9.20;99.90;;;;;;8392456;28;20444;-75
2023/04/11 02:51:11;;;;;;;;;;;9.20;99.90;;;;;;8398686;28;20327;-75
2023/04/11 02:55:13;;;;;;;;;;;9.20;99.90;;;;;;8383352;28;19925;-75
2023/04/11 02:59:15;;;;;;;;;;;9.20;99.90;;;;;;8414120;28;19971;-75
2023/04/11 03:03:16;;;;;;;;;;;9.10;99.90;;;;;;8393168;28;19925;-75
2023/04/11 03:07:18;;;;;;;;;;;9.10;99.90;;;;;;8387091;28;20377;-75
2023/04/11 03:11:20;;;;;;;;;;;9.10;99.90;;;;;;8389795;28;19967;-75
2023/04/11 03:15:22;;;;;;;;;;;9.00;99.90;;;;;;8389620;28;20414;-75
2023/04/11 03:19:23;;;;;;;;;;;9.00;99.90;;;;;;8374456;28;19928;-75
2023/04/11 03:23:25;;;;;;;;;;;9.00;99.90;;;;;;8387892;28;19963;-75
2023/04/11 03:27:27;;;;;;;;;;;8.90;99.90;;;;;;8385628;28;19938;-75
2023/04/11 03:31:29;;;;;;;;;;;8.90;99.90;;;;;;8414880;28;19932;-75
2023/04/11 03:35:31;;;;;;;;;;;8.90;99.90;;;;;;8399429;28;20035;-75
2023/04/11 03:39:32;;;;;;;;;;;8.90;99.90;;;;;;8417140;27;19929;-75
2023/04/11 03:43:34;;;;;;;;;;;8.90;99.90;;;;;;8401329;28;19938;-75
2023/04/11 03:47:36;;;;;;;;;;;8.90;99.90;;;;;;8403050;28;19992;-75
2023/04/11 03:51:38;;;;;;;;;;;8.90;99.90;;;;;;8397847;28;19928;-75
2023/04/11 03:55:40;;;;;;;;;;;8.90;99.90;;;;;;8388855;28;19924;-75
2023/04/11 03:59:41;;;;;;;;;;;8.90;99.90;;;;;;8385156;28;19963;-75
2023/04/11 04:03:43;;;;;;;;;;;8.80;99.90;;;;;;8388857;28;19970;-75
2023/04/11 04:07:45;;;;;;;;;;;8.70;99.90;;;;;;8387964;28;19971;-75
2023/04/11 04:11:47;;;;;;;;;;;8.60;99.90;;;;;;8397317;28;20277;-75
2023/04/11 04:15:50;;;;;;;;;;;8.60;99.90;;;;;;8407662;28;19931;-75
2023/04/11 04:19:51;;;;;;;;;;;8.60;99.90;;;;;;8390345;28;19932;-75
2023/04/11 04:23:53;;;;;;;;;;;8.50;99.90;;;;;;8401270;28;19928;-75
2023/04/11 04:27:56;;;;;;;;;;;8.50;99.90;;;;;;8403035;28;19933;-75
2023/04/11 04:32:00;;;;;;;;;;;8.40;99.90;;;;;;8400837;28;19939;-74
2023/04/11 04:36:03;;;;;;;;;;;8.40;99.90;;;;;;8410207;28;19925;-75
2023/04/11 04:40:08;;;;;;;;;;;8.40;99.90;;;;;;8407148;28;19938;-75
2023/04/11 04:44:10;;;;;;;;;;;8.40;99.90;;;;;;8412762;28;19931;-75
2023/04/11 04:48:12;;;;;;;;;;;8.40;99.90;;;;;;8414324;28;19924;-75
2023/04/11 04:52:14;;;;;;;;;;;8.30;99.90;;;;;;8409339;28;19931;-75
2023/04/11 04:56:16;;;;;;;;;;;8.30;99.90;;;;;;8399049;28;19924;-75
2023/04/11 05:00:18;;;;;;;;;;;8.20;99.90;;;;;;8393830;28;19932;-75
2023/04/11 05:04:23;;;;;;;;;;;8.20;99.90;;;;;;8373619;28;19925;-75
2023/04/11 05:08:26;;;;;;;;;;;8.10;99.90;;;;;;8370832;28;20431;-74
2023/04/11 05:12:27;;;;;;;;;;;8.00;99.90;;;;;;8383600;28;19986;-75
2023/04/11 05:16:29;;;;;;;;;;;8.00;99.90;;;;;;8406257;28;20031;-75
2023/04/11 05:20:31;;;;;;;;;;;8.00;99.90;;;;;;8397060;28;19924;-75
2023/04/11 05:24:32;;;;;;;;;;;8.00;99.90;;;;;;8397776;28;19970;-75
2023/04/11 05:28:34;;;;;;;;;;;8.00;99.90;;;;;;8403856;28;19925;-75
2023/04/11 05:32:36;;;;;;;;;;;8.00;99.90;;;;;;8397354;28;19925;-75
2023/04/11 05:36:38;;;;;;;;;;;8.00;99.90;;;;;;8372911;28;20372;-75
2023/04/11 05:40:39;;;;;;;;;;;8.10;99.90;;;;;;8373226;28;19936;-75
2023/04/11 05:44:41;;;;;;;;;;;8.10;99.90;;;;;;8372595;28;20449;-75
2023/04/11 05:48:43;;;;;;;;;;;8.20;99.90;;;;;;8391768;28;19928;-75
2023/04/11 05:52:44;;;;;;;;;;;8.20;99.90;;;;;;8412017;27;20011;-75
2023/04/11 05:56:46;;;;;;;;;;;8.20;99.90;;;;;;8374859;28;19924;-75
2023/04/11 06:00:48;;;;;;;;;;;8.30;99.90;;;;;;8415742;28;20339;-75
2023/04/11 06:04:50;;;;;;;;;;;8.40;99.90;;;;;;8367280;28;20424;-75
2023/04/11 06:08:52;;;;;;;;;;;8.50;99.90;;;;;;8372840;28;19970;-75
2023/04/11 06:12:54;;;;;;;;;;;8.50;99.90;;;;;;8391296;28;20295;-75
2023/04/11 06:16:56;;;;;;;;;;;8.70;99.90;;;;;;8406734;28;20410;-74
2023/04/11 06:20:58;;;;;;;;;;;8.70;99.90;;;;;;8420655;27;20386;-75
2023/04/11 06:24:59;;;;;;;;;;;8.80;99.90;;;;;;8379532;28;20011;-75
2023/04/11 06:29:02;;;;;;;;;;;9.00;99.90;;;;;;8375963;28;19924;-75
2023/04/11 06:33:04;;;;;;;;;;;9.00;99.90;;;;;;8380617;28;20315;-75
2023/04/11 06:37:06;;;;;;;;;;;9.20;99.90;;;;;;8361396;28;19929;-74
2023/04/11 06:41:08;;;;;;;;;;;9.30;99.90;;;;;;8393947;28;20388;-75
2023/04/11 06:45:10;;;;;;;;;;;9.30;99.90;;;;;;8397365;28;19936;-75
2023/04/11 06:49:12;;;;;;;;;;;9.50;99.90;;;;;;8382142;28;19929;-75
2023/04/11 06:53:14;;;;;;;;;;;9.50;99.90;;;;;;8377905;28;19931;-75
2023/04/11 06:57:16;;;;;;;;;;;9.60;99.90;;;;;;8418212;28;19925;-75
2023/04/11 07:01:19;;;;;;;;;;;9.70;99.90;;;;;;8376310;28;19924;-75
2023/04/11 07:05:21;;;;;;;;;;;9.70;99.90;;;;;;8395325;28;19925;-75
2023/04/11 07:09:23;;;;;;;;;;;9.80;99.90;;;;;;8377546;28;19925;-75
2023/04/11 07:13:24;;;;;;;;;;;9.80;99.90;;;;;;8374395;28;19924;-75
2023/04/11 07:17:26;;;;;;;;;;;9.80;99.90;;;;;;8391211;28;19967;-75
2023/04/11 07:21:29;;;;;;;;;;;9.80;99.90;;;;;;8382010;28;19931;-75
2023/04/11 07:25:32;;;;;;;;;;;9.80;99.90;;;;;;8401875;28;19970;-75
2023/04/11 07:29:33;;;;;;;;;;;9.90;99.90;;;;;;8399275;28;19925;-75
2023/04/11 07:33:36;;;;;;;;;;;10.10;99.90;;;;;;8395060;28;19971;-75
2023/04/11 07:37:38;;;;;;;;;;;10.20;99.90;;;;;;8400011;28;20261;-75
2023/04/11 07:41:40;;;;;;;;;;;10.20;99.90;;;;;;8399847;28;19925;-75
2023/04/11 07:45:41;;;;;;;;;;;10.20;99.90;;;;;;8407636;28;19925;-75
2023/04/11 07:49:43;;;;;;;;;;;10.00;99.90;;;;;;8407193;28;19970;-76
2023/04/11 07:53:45;;;;;;;;;;;10.10;99.90;;;;;;8384434;28;19931;-75
2023/04/11 07:57:47;;;;;;;;;;;10.30;99.90;;;;;;8371440;28;19943;-76
2023/04/11 08:01:56;;;;;;;;;;;10.40;99.90;;;;;;8433268;28;20369;-75
2023/04/11 08:05:57;;;;;;;;;;;10.50;99.90;;;;;;8395228;28;20003;-75
2023/04/11 08:09:59;;;;;;;;;;;10.50;99.90;;;;;;8389993;28;19932;-75
2023/04/11 08:14:01;;;;;;;;;;;10.70;99.90;;;;;;8409980;28;19972;-75
2023/04/11 08:18:03;;;;;;;;;;;10.80;99.90;;;;;;8398857;28;19981;-75
2023/04/11 08:22:05;;;;;;;;;;;10.90;99.90;;;;;;8400349;28;19973;-75
2023/04/11 08:26:07;;;;;;;;;;;11.10;99.90;;;;;;8391534;28;20387;-75
2023/04/11 08:30:09;;;;;;;;;;;11.10;99.90;;;;;;8425267;28;20019;-75
2023/04/11 08:34:11;;;;;;;;;;;11.00;99.90;;;;;;8397416;28;19931;-75
2023/04/11 08:38:13;;;;;;;;;;;11.00;99.90;;;;;;8407118;28;20350;-75
2023/04/11 08:42:24;;;;;;;;;;;11.10;99.90;;;;;;8382059;28;19924;-75
2023/04/11 08:46:26;;;;;;;;;;;11.20;99.90;;;;;;8368106;28;19931;-75
2023/04/11 08:50:28;;;;;;;;;;;11.30;99.90;;;;;;8370716;28;19928;-75
2023/04/11 08:54:30;;;;;;;;;;;11.30;99.90;;;;;;8397478;28;19924;-75
2023/04/11 08:58:32;;;;;;;;;;;11.10;99.90;;;;;;8389063;28;19947;-75
2023/04/11 09:02:33;;;;;;;;;;;11.00;99.90;;;;;;8372192;28;19932;-75
2023/04/11 09:06:35;;;;;;;;;;;11.20;99.90;;;;;;8394562;28;19959;-75
2023/04/11 09:20:57;;;;;;;;;;;11.70;99.90;;;;;;8374657;28;19920;-75
2023/04/11 09:25:02;;;;;;;;;;;11.80;99.90;;;;;;8401920;28;19936;-75
2023/04/11 09:29:04;;;;;;;;;;;12.00;99.90;;;;;;8390028;28;19931;-75
2023/04/11 09:33:22;;;;;;;;;;;12.20;99.90;;;;;;8404997;28;19931;-75
2023/04/11 09:37:24;;;;;;;;;;;12.20;99.90;;;;;;8386732;28;20407;-75
2023/04/11 09:41:30;;;;;;;;;;;12.20;99.90;;;;;;8397363;28;20248;-75
2023/04/11 09:45:32;;;;;;;;;;;12.30;99.90;;;;;;8397240;28;19932;-75
2023/04/11 09:49:42;;;;;;;;;;;12.40;99.90;;;;;;8380565;28;20281;-75
2023/04/11 09:53:44;;;;;;;;;;;12.50;99.90;;;;;;8401753;28;19925;-75
2023/04/11 09:57:46;;;;;;;;;;;12.40;99.90;;;;;;8390688;28;20011;-75
2023/04/11 10:01:49;;;;;;;;;;;12.20;99.90;;;;;;8385387;28;19964;-75
2023/04/11 10:05:53;;;;;;;;;;;12.00;99.90;;;;;;8404901;28;20116;-74
2023/04/11 10:09:55;;;;;;;;;;;12.00;99.90;;;;;;8388359;28;19925;-75
2023/04/11 10:13:57;;;;;;;;;;;11.90;99.90;;;;;;8416996;28;19928;-75
2023/04/11 10:18:11;;;;;;;;;;;12.00;99.90;;;;;;8375207;28;19955;-75
2023/04/11 10:22:31;;;;;;;;;;;12.10;99.90;;;;;;8397812;28;19924;-75
2023/04/11 10:26:52;;;;;;;;;;;12.40;99.90;;;;;;8387595;28;19925;-76
2023/04/11 10:30:57;;;;;;;;;;;12.50;99.90;;;;;;8378983;28;19933;-75
2023/04/11 10:34:59;;;;;;;;;;;12.80;99.90;;;;;;8383030;28;19935;-75
2023/04/11 10:39:01;;;;;;;;;;;13.20;99.90;;;;;;8419355;28;19924;-75
2023/04/11 10:43:17;;;;;;;;;;;13.50;99.90;;;;;;8402910;28;19990;-75
2023/04/11 10:47:19;;;;;;;;;;;13.60;99.90;;;;;;8402648;28;19928;-75
2023/04/11 10:51:22;;;;;;;;;;;13.90;99.90;;;;;;8400328;28;19936;-75
2023/04/11 10:55:25;;;;;;;;;;;13.90;99.90;;;;;;8387366;28;20030;-75
2023/04/11 10:59:30;;;;;;;;;;;14.20;99.90;;;;;;8397367;28;19932;-76
2023/04/11 11:03:33;;;;;;;;;;;14.50;99.90;;;;;;8426739;27;19925;-75
2023/04/11 11:07:35;;;;;;;;;;;14.60;99.90;;;;;;8412919;28;19931;-75
2023/04/11 11:11:37;;;;;;;;;;;14.70;99.90;;;;;;8385387;28;19925;-75
2023/04/11 11:15:45;;;;;;;;;;;14.40;99.90;;;;;;8396071;28;20575;-75
2023/04/11 11:19:47;;;;;;;;;;;14.30;99.90;;;;;;8400203;28;19959;-75
2023/04/11 11:23:55;;;;;;;;;;;14.40;99.90;;;;;;8382499;28;19925;-75
2023/04/11 11:27:58;;;;;;;;;;;14.60;99.90;;;;;;8372089;28;19964;-75
2023/04/11 11:32:02;;;;;;;;;;;14.80;99.30;;;;;;8386175;28;19932;-75
2023/04/11 11:36:05;;;;;;;;;;;15.10;99.90;;;;;;8391448;28;19929;-75
2023/04/11 11:40:11;;;;;;;;;;;15.40;96.90;;;;;;8388057;28;20295;-75
2023/04/11 11:44:22;;;;;;;;;;;15.40;99.50;;;;;;8375572;28;19986;-75
2023/04/11 11:48:24;;;;;;;;;;;15.40;98.90;;;;;;8371830;28;20395;-75
2023/04/11 11:52:33;;;;;;;;;;;15.40;97.90;;;;;;8370872;28;20004;-76
2023/04/11 11:56:35;;;;;;;;;;;15.60;96.90;;;;;;8384736;28;20396;-75
2023/04/11 12:00:38;;;;;;;;;;;16.10;99.90;;;;;;8364127;28;19929;-75
2023/04/11 12:04:39;;;;;;;;;;;16.70;99.90;;;;;;8366174;28;19979;-76
2023/04/11 12:14:20;;;;;;;;;;;17.30;99.80;;;;;;8366849;28;20418;-75
2023/04/11 12:18:22;;;;;;;;;;;17.40;99.70;;;;;;8380329;28;20344;-76
2023/04/11 12:22:23;;;;;;;;;;;17.40;96.10;;;;;;8361775;28;20015;-75
2023/04/11 12:26:25;;;;;;;;;;;16.80;99.90;;;;;;8366350;28;19951;-75
2023/04/11 12:35:31;;;;;;;;;;;15.60;98.60;;;;;;8364114;28;19919;-75
2023/04/11 12:39:32;;;;;;;;;;;15.10;96.10;;;;;;8363398;28;19931;-76
2023/04/11 12:43:34;;;;;;;;;;;14.80;95.30;;;;;;8365741;28;19937;-75
2023/04/11 12:47:36;;;;;;;;;;;14.70;96.90;;;;;;8371755;28;19924;-75
2023/04/11 12:51:37;;;;;;;;;;;14.80;94.80;;;;;;8373754;28;19925;-75
2023/04/11 12:55:39;;;;;;;;;;;14.80;95.50;;;;;;8367156;28;19932;-75
2023/04/11 12:59:41;;;;;;;;;;;14.90;92.70;;;;;;8368223;28;19928;-75
2023/04/11 13:03:42;;;;;;;;;;;14.80;92.30;;;;;;8359654;28;19960;-75
2023/04/11 13:07:44;;;;;;;;;;;14.80;92.10;;;;;;8394039;27;19925;-75
2023/04/11 13:11:46;;;;;;;;;;;14.70;92.40;;;;;;8365489;28;19925;-75
2023/04/11 13:15:48;;;;;;;;;;;14.80;92.00;;;;;;8363998;28;19932;-75
2023/04/11 13:19:50;;;;;;;;;;;14.80;92.00;;;;;;8364374;28;19929;-75
2023/04/11 13:23:52;;;;;;;;;;;15.00;92.90;;;;;;8372619;28;19968;-75
2023/04/11 13:27:53;;;;;;;;;;;15.40;91.60;;;;;;8372668;28;20372;-75
2023/04/11 13:36:59;;;;;;;;;;;15.30;89.60;;;;;;8361691;28;20115;-75
2023/04/11 13:41:01;;;;;;;;;;;14.70;88.40;;;;;;8377104;28;20380;-75
2023/04/11 13:45:03;;;;;;;;;;;14.40;90.40;;;;;;8368650;28;20323;-76
2023/04/11 13:49:05;;;;;;;;;;;14.40;91.10;;;;;;8368644;28;19956;-75
2023/04/11 13:53:06;;;;;;;;;;;14.60;91.60;;;;;;8386402;28;20379;-75
2023/04/11 13:57:08;;;;;;;;;;;14.80;90.50;;;;;;8385147;28;19931;-76
2023/04/11 14:01:10;;;;;;;;;;;15.00;91.10;;;;;;8382931;28;20308;-75
2023/04/11 14:05:12;;;;;;;;;;;15.00;89.80;;;;;;8369327;28;20322;-75
2023/04/11 14:09:13;;;;;;;;;;;15.60;91.30;;;;;;8365177;28;20280;-75
2023/04/11 14:13:15;;;;;;;;;;;16.70;93.40;;;;;;8359301;28;20266;-75
2023/04/11 14:17:17;;;;;;;;;;;17.80;92.00;;;;;;8361397;28;19933;-75
2023/04/11 14:21:18;;;;;;;;;;;18.60;95.60;;;;;;8362994;28;20066;-75
2023/04/11 14:25:23;;;;;;;;;;;19.20;90.20;;;;;;8366869;28;19924;-75
2023/04/11 14:29:25;;;;;;;;;;;19.40;87.30;;;;;;8368030;28;20035;-76
2023/04/11 14:33:26;;;;;;;;;;;19.00;80.30;;;;;;8368619;28;19924;-76
2023/04/11 14:37:29;;;;;;;;;;;18.70;90.10;;;;;;8374205;28;19924;-76
2023/04/11 14:41:30;;;;;;;;;;;18.70;80.10;;;;;;8360654;28;19925;-76
2023/04/11 14:45:32;;;;;;;;;;;18.90;80.10;;;;;;8364813;28;19941;-76
2023/04/11 14:49:34;;;;;;;;;;;18.60;71.00;;;;;;8370065;28;19931;-75
2023/04/11 14:53:36;;;;;;;;;;;18.30;70.40;;;;;;8364160;28;19940;-76
2023/04/11 14:57:48;;;;;;;;;;;18.30;73.20;;;;;;8374086;28;20283;-76
2023/04/11 15:01:50;;;;;;;;;;;18.60;76.30;;;;;;8376873;28;20376;-73
2023/04/11 15:05:51;;;;;;;;;;;18.80;75.30;;;;;;8361713;28;20055;-74
2023/04/11 15:09:53;;;;;;;;;;;19.10;78.10;;;;;;8379903;28;19925;-74
2023/04/11 15:13:55;;;;;;;;;;;19.20;77.60;;;;;;8362192;28;20256;-74
2023/04/11 15:18:17;;;;;;;;;;;19.40;78.80;;;;;;8368894;28;19933;-74
2023/04/11 15:22:19;;;;;;;;;;;19.30;74.00;;;;;;8367698;28;19954;-73
2023/04/11 15:26:21;;;;;;;;;;;19.50;78.90;;;;;;8379202;28;19939;-73
2023/04/11 15:40:41;;;;;;;;;;;20.10;70.50;;;;;;8368395;28;19924;-74
2023/04/11 15:44:43;;;;;;;;;;;20.10;66.40;;;;;;8367158;28;19929;-74
2023/04/11 15:48:45;;;;;;;;;;;20.40;67.60;;;;;;8371139;28;19970;-74
2023/04/11 15:52:47;;;;;;;;;;;20.60;65.10;;;;;;8381377;28;20412;-77
2023/04/11 15:56:49;;;;;;;;;;;20.70;64.70;;;;;;8365457;28;19925;-74
2023/04/11 16:00:53;;;;;;;;;;;21.10;68.90;;;;;;8367468;28;19930;-74
2023/04/11 16:04:55;;;;;;;;;;;21.50;74.10;;;;;;8397439;28;20031;-74
2023/04/11 16:08:57;;;;;;;;;;;21.50;63.10;;;;;;8366166;28;19925;-74
2023/04/11 16:12:59;;;;;;;;;;;21.30;68.20;;;;;;8367280;28;20407;-74
2023/04/11 16:17:01;;;;;;;;;;;21.20;66.20;;;;;;8376859;28;20036;-74
2023/04/11 16:21:02;;;;;;;;;;;21.10;65.30;;;;;;8365087;28;19960;-74
2023/04/11 16:25:05;;;;;;;;;;;21.20;64.70;;;;;;8369818;28;19924;-74
2023/04/11 16:29:06;;;;;;;;;;;21.20;62.20;;;;;;8378875;28;19925;-73
2023/04/11 16:33:08;;;;;;;;;;;20.90;62.80;;;;;;8404904;27;20387;-73
2023/04/11 16:37:10;;;;;;;;;;;20.60;65.70;;;;;;8370886;28;20368;-74
2023/04/11 16:41:12;;;;;;;;;;;20.50;66.30;;;;;;8370020;28;19939;-74
2023/04/11 16:45:13;;;;;;;;;;;20.40;65.20;;;;;;8366346;28;20355;-74
2023/04/11 16:49:15;;;;;;;;;;;20.30;67.00;;;;;;8364920;28;19936;-74
2023/04/11 16:53:17;;;;;;;;;;;20.40;69.70;;;;;;8368846;28;20384;-74
2023/04/11 16:57:19;;;;;;;;;;;20.60;68.50;;;;;;8367075;28;19933;-74
2023/04/11 17:01:20;;;;;;;;;;;20.50;65.20;;;;;;8368604;28;19928;-73
2023/04/11 17:05:22;;;;;;;;;;;20.30;68.20;;;;;;8379549;28;19940;-74
2023/04/11 17:09:24;;;;;;;;;;;20.00;67.60;;;;;;8364325;28;20407;-74
2023/04/11 17:13:26;;;;;;;;;;;19.40;69.20;;;;;;8380525;28;19925;-74
2023/04/11 17:17:27;;;;;;;;;;;18.90;71.40;;;;;;8374985;28;20032;-73
2023/04/11 17:21:30;;;;;;;;;;;18.50;71.70;;;;;;8406304;28;19928;-73
2023/04/11 17:25:32;;;;;;;;;;;18.10;72.60;;;;;;8372141;28;19933;-73
2023/04/11 17:29:33;;;;;;;;;;;17.60;73.30;;;;;;8370727;28;19932;-73
2023/04/11 17:33:35;;;;;;;;;;;17.30;74.70;;;;;;8365292;28;19972;-73
2023/04/11 17:37:38;;;;;;;;;;;17.10;75.40;;;;;;8357633;28;19928;-73
2023/04/11 17:41:40;;;;;;;;;;;16.80;75.90;;;;;;8362542;28;19954;-74
2023/04/11 17:45:42;;;;;;;;;;;16.60;76.50;;;;;;8364837;28;19959;-73
2023/04/11 17:49:44;;;;;;;;;;;16.30;78.10;;;;;;8370387;28;19964;-73
2023/04/11 17:53:46;;;;;;;;;;;16.00;78.50;;;;;;8358693;28;19925;-74
2023/04/11 17:57:48;;;;;;;;;;;15.80;79.40;;;;;;8361106;28;20019;-73
2023/04/11 18:01:52;;;;;;;;;;;15.60;78.70;;;;;;8394448;28;20015;-73
2023/04/11 18:05:54;;;;;;;;;;;15.50;78.60;;;;;;8362191;28;19961;-73
2023/04/11 18:09:55;;;;;;;;;;;15.50;79.30;;;;;;8362357;28;19936;-73
2023/04/11 18:13:57;;;;;;;;;;;15.40;79.80;;;;;;8360232;28;19925;-74
2023/04/11 18:18:02;;;;;;;;;;;15.30;80.90;;;;;;8383073;28;19932;-75
2023/04/11 18:22:04;;;;;;;;;;;15.20;82.90;;;;;;8367710;28;19971;-73
2023/04/11 18:26:06;;;;;;;;;;;15.20;84.70;;;;;;8362074;28;20307;-73
2023/04/11 18:30:11;;;;;;;;;;;15.10;83.00;;;;;;8370108;28;20443;-73
2023/04/11 18:34:13;;;;;;;;;;;15.00;84.20;;;;;;8364545;28;19939;-73
2023/04/11 18:38:15;;;;;;;;;;;14.90;84.70;;;;;;8397435;28;19929;-75
2023/04/11 18:42:16;;;;;;;;;;;14.80;84.30;;;;;;8394198;28;19971;-75
2023/04/11 18:46:18;;;;;;;;;;;14.70;85.20;;;;;;8361297;28;20380;-75
2023/04/11 18:50:20;;;;;;;;;;;14.70;85.80;;;;;;8370312;28;19940;-75
2023/04/11 18:54:22;;;;;;;;;;;14.70;86.20;;;;;;8395238;28;19960;-75
2023/04/11 18:58:23;;;;;;;;;;;14.70;86.90;;;;;;8356887;28;20339;-75
2023/04/11 19:02:27;;;;;;;;;;;14.70;87.40;;;;;;8389042;28;20015;-74
2023/04/11 19:06:28;;;;;;;;;;;14.70;86.90;;;;;;8369318;28;19932;-75
2023/04/11 19:10:30;;;;;;;;;;;14.70;86.50;;;;;;8373569;28;19968;-75
2023/04/11 19:14:32;;;;;;;;;;;14.70;86.70;;;;;;8365520;28;20003;-75
2023/04/11 19:18:34;;;;;;;;;;;14.70;87.30;;;;;;8365052;28;19928;-75
2023/04/11 19:22:38;;;;;;;;;;;14.70;85.90;;;;;;8366038;28;21968;-75
2023/04/11 19:26:40;;;;;;;;;;;14.60;85.40;;;;;;8364734;28;19932;-75
2023/04/11 19:30:42;;;;;;;;;;;14.60;86.20;;;;;;8366560;28;19933;-75
2023/04/11 19:34:43;;;;;;;;;;;14.60;86.80;;;;;;8368861;28;19925;-75
2023/04/11 19:38:45;;;;;;;;;;;14.50;86.40;;;;;;8372471;28;19939;-75
2023/04/11 19:42:47;;;;;;;;;;;14.40;86.70;;;;;;8396428;27;19929;-75
2023/04/11 19:46:49;;;;;;;;;;;14.20;88.60;;;;;;8383082;28;20040;-75
2023/04/11 19:50:50;;;;;;;;;;;14.00;90.30;;;;;;8396854;28;20265;-75
2023/04/11 19:54:52;;;;;;;;;;;13.80;88.80;;;;;;8368109;28;20403;-76
2023/04/11 19:58:54;;;;;;;;;;;13.80;90.10;;;;;;8368861;28;20432;-75
2023/04/11 20:02:55;;;;;;;;;;;13.80;89.20;;;;;;8370550;28;19925;-75
2023/04/11 20:06:59;;;;;;;;;;;13.80;86.80;;;;;;8358597;28;19928;-75
2023/04/11 20:11:02;;;;;;;;;;;13.80;90.60;;;;;;8364423;28;19932;-75
2023/04/11 20:15:04;;;;;;;;;;;13.80;86.90;;;;;;8370667;28;20020;-75
2023/04/11 20:19:07;;;;;;;;;;;13.70;88.50;;;;;;8391475;27;19924;-75
2023/04/11 20:23:09;;;;;;;;;;;13.60;90.70;;;;;;8362966;28;19968;-75
2023/04/11 20:27:10;;;;;;;;;;;13.50;90.80;;;;;;8356712;28;20015;-75
2023/04/11 20:31:12;;;;;;;;;;;13.40;90.90;;;;;;8394267;27;20415;-75
2023/04/11 20:35:14;;;;;;;;;;;13.30;92.20;;;;;;8371858;28;19979;-76
2023/04/11 20:39:16;;;;;;;;;;;13.20;92.00;;;;;;8366608;28;20571;-76
2023/04/11 20:43:17;;;;;;;;;;;13.10;92.60;;;;;;8383218;28;19932;-75
2023/04/11 20:47:19;;;;;;;;;;;13.00;93.10;;;;;;8365138;28;19925;-76
2023/04/11 20:51:21;;;;;;;;;;;12.90;93.00;;;;;;8363590;28;19993;-75
2023/04/11 20:55:24;;;;;;;;;;;12.90;92.50;;;;;;8379385;28;19939;-76
2023/04/11 20:59:27;;;;;;;;;;;12.80;94.40;;;;;;8363182;28;20500;-75
2023/04/11 21:03:29;;;;;;;;;;;12.80;93.40;;;;;;8382626;28;19981;-75
2023/04/11 21:07:31;;;;;;;;;;;12.70;94.50;;;;;;8389391;28;19924;-75
2023/04/11 21:11:33;;;;;;;;;;;12.60;93.50;;;;;;8386657;28;20445;-75
2023/04/11 21:15:34;;;;;;;;;;;12.60;94.20;;;;;;8385940;28;19928;-75
2023/04/11 21:19:36;;;;;;;;;;;12.60;93.40;;;;;;8385045;28;19943;-75
2023/04/11 21:23:38;;;;;;;;;;;12.60;94.00;;;;;;8385834;28;19928;-75
2023/04/11 21:27:40;;;;;;;;;;;12.50;93.50;;;;;;8391768;28;19928;-75
2023/04/11 21:31:42;;;;;;;;;;;12.40;95.50;;;;;;8395649;28;19951;-75
2023/04/11 21:35:43;;;;;;;;;;;12.40;94.80;;;;;;8394627;28;19947;-75
2023/04/11 21:39:45;;;;;;;;;;;12.40;95.50;;;;;;8396106;28;19924;-75
2023/04/11 21:43:46;;;;;;;;;;;12.40;95.80;;;;;;8396510;28;20030;-75
2023/04/11 21:47:49;;;;;;;;;;;12.40;94.80;;;;;;8381540;28;20356;-76
2023/04/11 21:51:51;;;;;;;;;;;12.40;94.30;;;;;;8389557;28;19932;-75
2023/04/11 21:55:53;;;;;;;;;;;12.30;93.30;;;;;;8380025;28;20357;-75
2023/04/11 21:59:55;;;;;;;;;;;12.30;94.70;;;;;;8379298;28;19976;-76
2023/04/11 22:03:57;;;;;;;;;;;12.20;96.20;;;;;;8388934;28;19924;-75
2023/04/11 22:08:10;;;;;;;;;;;12.10;98.20;;;;;;8393765;28;19928;-75
2023/04/11 22:12:16;;;;;;;;;;;12.00;98.90;;;;;;8392401;28;21264;-75
2023/04/11 22:16:17;;;;;;;;;;;11.80;99.80;;;;;;8391835;28;20355;-75
2023/04/11 22:20:19;;;;;;;;;;;11.70;99.30;;;;;;8393445;28;19931;-75
2023/04/11 22:24:22;;;;;;;;;;;11.60;99.90;;;;;;8395022;28;19924;-75
2023/04/11 22:28:25;;;;;;;;;;;11.50;99.80;;;;;;8397870;28;19939;-75
2023/04/11 22:32:27;;;;;;;;;;;11.40;99.90;;;;;;8392335;28;19966;-75
2023/04/11 22:36:34;;;;;;;;;;;11.40;99.90;;;;;;8386316;28;20035;-75
2023/04/11 22:40:37;;;;;;;;;;;11.30;99.90;;;;;;8392817;28;20257;-76
2023/04/11 22:44:39;;;;;;;;;;;11.30;99.90;;;;;;8386633;28;20014;-75
2023/04/11 22:48:42;;;;;;;;;;;11.30;99.90;;;;;;8423221;28;19977;-75
2023/04/11 22:52:44;;;;;;;;;;;11.30;99.90;;;;;;8388557;28;19933;-75
2023/04/11 22:56:53;;;;;;;;;;;11.20;99.90;;;;;;8391092;28;20367;-75
2023/04/11 23:00:55;;;;;;;;;;;11.10;99.90;;;;;;8386079;28;19958;-76
2023/04/11 23:04:57;;;;;;;;;;;11.00;99.90;;;;;;8401373;28;20383;-76
2023/04/11 23:08:58;;;;;;;;;;;10.90;99.90;;;;;;8397275;28;19932;-75
2023/04/11 23:13:00;;;;;;;;;;;10.90;99.90;;;;;;8391575;28;19925;-75
2023/04/11 23:17:02;;;;;;;;;;;10.80;99.90;;;;;;8392213;28;19952;-75
2023/04/11 23:21:03;;;;;;;;;;;10.80;99.90;;;;;;8391476;28;19977;-75
2023/04/11 23:25:05;;;;;;;;;;;10.70;99.90;;;;;;8385332;28;19929;-75
2023/04/11 23:29:07;;;;;;;;;;;10.70;99.90;;;;;;8380728;28;19925;-75
2023/04/11 23:33:09;;;;;;;;;;;10.60;99.90;;;;;;8397474;28;20019;-75
2023/04/11 23:37:11;;;;;;;;;;;10.60;99.90;;;;;;8413125;28;20101;-75
2023/04/11 23:41:13;;;;;;;;;;;10.50;99.90;;;;;;8392143;28;19924;-75
2023/04/11 23:45:19;;;;;;;;;;;10.50;99.90;;;;;;8389450;28;19972;-75
2023/04/11 23:49:20;;;;;;;;;;;10.40;99.90;;;;;;8398792;28;19936;-76
2023/04/11 23:53:22;;;;;;;;;;;10.40;99.90;;;;;;8395759;28;19941;-76
2023/04/11 23:57:24;;;;;;;;;;;10.30;99.90;;;;;;8396262;28;19932;-75
